• Join FlightAware (Why Join?)
  • Login
  • US Flag 
01:43AM EST


 

Airport Tracker/Info


-or-


 

Live Flight TrackerFlight Track Log ✈ JTL905 ✈ 13-Jul-2013 ✈ KASE - KAPA

Flight Track Log - Related Links

Times and Time Zones

All times are in EDT time to prevent confusion due to time zone crossing. See the JTL905 flight status page for this flight to view local times or setup timezone preferences in your user account.

Time Position Orientation Groundspeed Altitude Reporting Facility
EDT Latitude Longitude Course Direction KTS MPH feet Rate Location/Type
08:08PM 39.2900 -106.9350 142° Southeast 188 216 12,400  Level Denver Center
08:09PM 39.3381 -106.9458 350° North 222 255 15,600 2,520 Climbing Denver Center
08:10PM 39.3383 -106.8550 90° East 256 295 17,600 1,620 Climbing Denver Center
08:11PM 39.3431 -106.7483 87° East 294 338 19,000 660 Climbing Denver Center
08:12PM 39.3740 -106.5785 105° East  Level FlightAware Approximate
08:12PM 39.3469 -106.6144 88° East 365 420 19,000  Level Denver Center
08:13PM 39.3490 -106.4657 142° Southeast  Level FlightAware Approximate
08:13PM 39.3503 -106.4814 88° East 372 428 19,000  Level Denver Center
08:14PM 39.3078 -106.3556 114° Southeast 383 441 19,000  Level Denver Center
08:15PM 39.2625 -106.2247 114° Southeast 397 457 19,000  Level Denver Center
08:16PM 39.2106 -106.0783 115° Southeast 384 442 19,000  Level Denver Center
08:17PM 39.1667 -105.9547 115° Southeast 380 437 19,000  Level Denver Center
08:18PM 39.1142 -105.8442 121° Southeast 371 427 19,000  Level Denver Center
08:19PM 39.0386 -105.7375 132° Southeast 362 417 19,000 -420 Level Denver Center
08:20PM 39.0681 -105.6128 73° East 381 438 18,200 -960 Descending Denver Center
08:21PM 39.1097 -105.4717 69° East 378 435 17,100 -1,020 Descending Denver Center
08:22PM 39.1428 -105.3558 70° East 355 409 16,200 -900 Descending Denver Center
08:23PM 39.1764 -105.2425 69° East 345 397 15,300 -1,260 Descending Denver Center
08:24PM 39.1922 -105.1153 81° East 333 383 13,700 -1,380 Descending Denver Center
08:25PM 39.1839 -105.0083 96° East 304 350 12,500 -1,080 Descending Denver Center
08:26PM 39.1836 -104.9061 90° East 292 336 11,600 -960 Descending Denver Center
08:27PM 39.2267 -104.8403 50° Northeast 237 273 10,600 -1,320 Descending Denver Center
08:28PM 39.2933 -104.8394 North 238 274 8,900 -840 Descending Denver Center
08:29PM 39.3475 -104.8411 359° North 199 229 8,900 -120 Level Denver Center
08:30PM 39.3986 -104.8431 358° North 186 214 8,700 -540 Descending Denver Center
08:31PM 39.4494 -104.8447 359° North 173 199 7,800 -840 Descending Denver Center
08:32PM 39.4925 -104.8469 358° North 155 178 7,000 -720 Descending Denver Center
08:33PM 39.5267 -104.8483 358° North 124 143 6,400 -600 Descending Denver Center
08:34PM 39.5600 -104.8508 357° North 121 139 5,800 -600 Descending Denver Center
08:36PM 39.5667 -104.8333 North  Level FlightAware Approximate
08:43PM 39.5701 -104.8493 North  Level Estimated
08:44PM 39.5701 -104.8493 North  Level Estimated